Time;durP1;ratioP1;P1;durP2;ratioP2;P2;SDS_P1;SDS_P2;PMS_P1;PMS_P2;Temp;Humidity;BMP_temperature;BMP_pressure;BME280_temperature;BME280_humidity;BME280_pressure;Samples;Min_cycle;Max_cycle;Signal;HPM_P1;HPM_P2
2022/10/23 00:00:17;;;;;;;7.40;3.87;;;10.70;99.90;;;;;;5117939;28;20220;-81
2022/10/23 00:02:44;;;;;;;6.57;3.93;;;10.60;99.90;;;;;;5118438;28;20215;-81
2022/10/23 00:05:11;;;;;;;4.80;3.40;;;10.70;99.90;;;;;;5118076;28;20197;-81
2022/10/23 00:07:39;;;;;;;5.80;3.97;;;10.90;99.90;;;;;;5118841;28;20200;-81
2022/10/23 00:10:06;;;;;;;8.83;4.20;;;10.90;99.90;;;;;;5118196;28;20618;-81
2022/10/23 00:12:33;;;;;;;7.47;4.50;;;11.00;99.90;;;;;;5119438;27;20212;-81
2022/10/23 00:15:00;;;;;;;7.53;3.90;;;10.90;99.90;;;;;;5117141;28;20197;-81
2022/10/23 00:17:27;;;;;;;7.50;4.50;;;10.90;99.90;;;;;;5119004;28;20201;-81
2022/10/23 00:19:53;;;;;;;5.00;3.60;;;10.70;99.90;;;;;;5118347;28;20498;-81
2022/10/23 00:22:20;;;;;;;7.20;4.00;;;10.70;99.90;;;;;;5118881;28;20301;-81
2022/10/23 00:24:48;;;;;;;5.67;4.10;;;10.70;99.90;;;;;;5116398;28;20205;-81
2022/10/23 00:27:15;;;;;;;5.33;4.07;;;10.70;99.90;;;;;;5117282;28;20219;-81
2022/10/23 00:29:44;;;;;;;7.50;4.17;;;10.90;99.90;;;;;;5118042;28;20236;-81
2022/10/23 00:32:11;;;;;;;8.87;4.23;;;10.90;99.90;;;;;;5117032;28;20199;-81
2022/10/23 00:34:37;;;;;;;4.83;3.67;;;10.90;99.90;;;;;;5118018;28;20201;-81
2022/10/23 00:37:04;;;;;;;8.57;4.17;;;10.80;99.90;;;;;;5117629;28;20208;-81
2022/10/23 00:39:31;;;;;;;6.43;3.70;;;10.90;99.90;;;;;;5116834;28;20595;-81
2022/10/23 00:41:59;;;;;;;5.53;3.93;;;10.80;99.90;;;;;;5116437;28;20201;-81
2022/10/23 00:45:03;;;;;;;7.10;4.00;;;10.80;99.90;;;;;;5118209;28;20568;-81
2022/10/23 00:47:30;;;;;;;8.37;4.10;;;10.70;99.90;;;;;;5105523;28;20195;-81
2022/10/23 00:49:59;;;;;;;7.80;4.03;;;10.80;99.90;;;;;;5117445;28;20229;-81
2022/10/23 00:52:25;;;;;;;6.77;4.23;;;10.80;99.90;;;;;;5116939;28;20221;-81
2022/10/23 00:54:52;;;;;;;9.00;4.17;;;10.80;99.90;;;;;;5116691;28;20196;-81
2022/10/23 00:57:21;;;;;;;9.20;4.13;;;10.90;99.90;;;;;;5116362;28;20199;-81
2022/10/23 00:59:48;;;;;;;6.70;3.60;;;10.90;99.90;;;;;;5116798;28;20223;-81
2022/10/23 01:02:15;;;;;;;6.07;3.70;;;10.80;99.90;;;;;;5115474;28;20205;-81
2022/10/23 01:04:42;;;;;;;5.77;4.10;;;10.80;99.90;;;;;;5117659;28;20211;-81
2022/10/23 01:07:12;;;;;;;6.40;3.60;;;10.70;99.90;;;;;;5116774;28;20586;-81
2022/10/23 01:09:45;;;;;;;6.63;3.87;;;10.70;99.90;;;;;;5117764;28;20213;-81
2022/10/23 01:12:19;;;;;;;5.27;3.67;;;10.60;99.90;;;;;;5116208;28;20208;-81
2022/10/23 01:14:58;;;;;;;10.90;3.53;;;10.50;99.90;;;;;;5117706;28;20216;-81
2022/10/23 01:17:31;;;;;;;4.80;3.77;;;10.70;99.90;;;;;;5117454;28;20199;-81
2022/10/23 01:20:14;;;;;;;6.37;4.23;;;10.60;99.90;;;;;;5116822;28;20231;-81
2022/10/23 01:23:03;;;;;;;6.43;4.17;;;10.90;99.90;;;;;;5116211;28;20205;-81
2022/10/23 01:25:44;;;;;;;6.77;3.70;;;10.80;99.90;;;;;;5115995;28;20185;-81
2022/10/23 01:28:20;;;;;;;6.33;3.87;;;10.90;99.90;;;;;;5116339;28;20205;-81
2022/10/23 01:30:48;;;;;;;8.77;4.07;;;10.90;99.90;;;;;;5116066;28;20196;-81
2022/10/23 01:33:21;;;;;;;7.93;4.20;;;10.80;99.90;;;;;;5117655;28;20228;-81
2022/10/23 01:35:52;;;;;;;7.87;4.10;;;10.50;99.90;;;;;;5114405;28;20196;-81
2022/10/23 01:38:25;;;;;;;8.60;4.37;;;10.70;99.90;;;;;;5117024;28;20292;-81
2022/10/23 01:41:00;;;;;;;6.57;3.70;;;10.70;99.90;;;;;;5115043;28;20550;-81
2022/10/23 01:43:32;;;;;;;5.87;3.80;;;10.70;99.90;;;;;;5117048;28;20203;-81
2022/10/23 01:46:02;;;;;;;6.23;3.87;;;10.70;99.90;;;;;;5114724;28;20201;-81
2022/10/23 01:48:31;;;;;;;6.83;3.73;;;10.70;99.90;;;;;;5116318;28;20216;-81
2022/10/23 01:51:03;;;;;;;4.97;3.60;;;10.60;99.90;;;;;;5116634;28;20216;-81
2022/10/23 01:53:33;;;;;;;6.40;3.50;;;10.60;99.90;;;;;;5116438;28;20213;-81
2022/10/23 01:56:02;;;;;;;7.37;3.50;;;10.50;99.90;;;;;;5114213;28;20201;-81
2022/10/23 01:58:32;;;;;;;4.40;3.40;;;10.60;99.90;;;;;;5116505;28;20193;-81
2022/10/23 02:01:03;;;;;;;11.50;4.10;;;10.50;99.90;;;;;;5114958;28;20204;-81
2022/10/23 02:03:32;;;;;;;6.87;4.23;;;10.50;99.90;;;;;;5116835;28;20196;-81
2022/10/23 02:05:59;;;;;;;5.13;3.60;;;10.60;99.90;;;;;;5116683;28;20231;-81
2022/10/23 02:08:26;;;;;;;7.83;4.10;;;10.60;99.90;;;;;;5116091;28;20649;-81
2022/10/23 02:10:59;;;;;;;4.30;3.63;;;10.50;99.90;;;;;;5113795;28;20672;-81
2022/10/23 02:13:33;;;;;;;6.90;3.80;;;10.40;99.90;;;;;;5116290;28;20208;-81
2022/10/23 02:16:05;;;;;;;7.43;3.37;;;10.40;99.90;;;;;;5114926;28;20543;-81
2022/10/23 02:18:40;;;;;;;5.97;3.67;;;10.50;99.90;;;;;;5115069;28;20205;-81
2022/10/23 02:21:10;;;;;;;5.37;3.53;;;10.40;99.90;;;;;;5115781;28;20207;-81
2022/10/23 02:23:43;;;;;;;9.73;3.80;;;10.30;99.90;;;;;;5115926;28;20552;-81
2022/10/23 02:26:17;;;;;;;7.77;3.93;;;10.30;99.90;;;;;;5113662;28;20203;-81
2022/10/23 02:28:50;;;;;;;5.60;3.50;;;10.30;99.90;;;;;;5116219;28;20311;-81
2022/10/23 02:31:19;;;;;;;6.83;4.00;;;10.30;99.90;;;;;;5114540;28;20641;-81
2022/10/23 02:33:47;;;;;;;6.63;4.03;;;10.30;99.90;;;;;;5115752;28;20225;-81
2022/10/23 02:36:15;;;;;;;4.13;3.23;;;10.30;99.90;;;;;;5113980;28;20197;-81
2022/10/23 02:38:44;;;;;;;8.43;4.20;;;10.20;99.90;;;;;;5115247;28;20217;-81
2022/10/23 02:41:35;;;;;;;6.97;3.40;;;10.20;99.90;;;;;;5114238;28;20199;-81
2022/10/23 02:44:13;;;;;;;4.90;3.47;;;10.30;99.90;;;;;;5115353;28;20193;-81
2022/10/23 02:46:50;;;;;;;7.33;3.77;;;10.20;99.90;;;;;;5114017;28;20477;-81
2022/10/23 02:49:23;;;;;;;6.30;4.03;;;10.30;99.90;;;;;;5103359;28;20220;-81
2022/10/23 02:51:58;;;;;;;7.50;3.87;;;10.30;99.90;;;;;;5115486;28;20681;-81
2022/10/23 02:54:40;;;;;;;5.43;3.23;;;10.30;99.90;;;;;;5114129;28;20586;-81
2022/10/23 02:57:17;;;;;;;6.47;3.53;;;10.30;99.90;;;;;;5112998;28;20665;-81
2022/10/23 02:59:51;;;;;;;7.17;3.90;;;10.10;99.90;;;;;;5113770;28;20673;-81
2022/10/23 03:02:23;;;;;;;9.57;4.03;;;10.00;99.90;;;;;;5114503;28;20181;-81
2022/10/23 03:04:52;;;;;;;6.43;3.90;;;10.10;99.90;;;;;;5114916;28;20597;-81
2022/10/23 03:07:20;;;;;;;6.77;3.40;;;10.10;99.90;;;;;;5115087;28;20308;-81
2022/10/23 03:09:48;;;;;;;6.90;3.80;;;10.10;99.90;;;;;;5115540;28;20229;-81
2022/10/23 03:12:15;;;;;;;8.10;4.03;;;10.00;99.90;;;;;;5108726;28;20200;-81
2022/10/23 03:14:41;;;;;;;7.87;4.30;;;10.00;99.90;;;;;;5115340;28;20519;-81
2022/10/23 03:17:10;;;;;;;10.10;4.43;;;10.00;99.90;;;;;;5115598;28;20197;-81
2022/10/23 03:19:36;;;;;;;9.63;4.30;;;10.30;99.90;;;;;;5114339;28;20224;-81
2022/10/23 03:22:03;;;;;;;5.93;4.27;;;10.40;99.90;;;;;;5114940;28;20193;-81
2022/10/23 03:24:30;;;;;;;6.93;4.20;;;10.30;99.90;;;;;;5115254;28;20192;-81
2022/10/23 03:26:57;;;;;;;7.30;3.70;;;10.10;99.90;;;;;;5115127;28;20201;-81
2022/10/23 03:29:23;;;;;;;6.67;3.77;;;9.80;99.90;;;;;;5115989;28;20227;-81
2022/10/23 03:31:50;;;;;;;5.00;3.60;;;9.60;99.90;;;;;;5118014;28;20196;-80
2022/10/23 03:34:18;;;;;;;5.60;3.47;;;9.50;99.90;;;;;;5119239;28;20209;-81
2022/10/23 03:36:45;;;;;;;5.57;3.80;;;9.60;99.90;;;;;;5118047;28;20211;-81
2022/10/23 03:39:12;;;;;;;6.80;4.30;;;9.70;99.90;;;;;;5117067;28;20300;-81
2022/10/23 03:41:39;;;;;;;6.07;4.20;;;9.70;99.90;;;;;;5118497;28;20563;-81
2022/10/23 03:44:05;;;;;;;4.10;3.40;;;9.70;99.90;;;;;;5119125;28;20282;-81
2022/10/23 03:46:32;;;;;;;6.20;3.90;;;9.70;99.90;;;;;;5117210;28;20213;-81
2022/10/23 03:48:59;;;;;;;8.03;4.20;;;9.70;99.90;;;;;;5119247;28;20213;-81
2022/10/23 03:51:27;;;;;;;5.10;3.80;;;9.70;99.90;;;;;;5118715;28;20205;-81
2022/10/23 03:53:54;;;;;;;6.47;3.40;;;9.70;99.90;;;;;;5118917;28;20220;-81
2022/10/23 03:56:21;;;;;;;6.37;3.70;;;9.60;99.90;;;;;;5119041;28;20203;-81
2022/10/23 03:58:48;;;;;;;5.87;4.20;;;9.60;99.90;;;;;;5120276;28;20228;-81
2022/10/23 04:01:15;;;;;;;5.70;3.77;;;9.50;99.90;;;;;;5118291;28;20696;-80
2022/10/23 04:03:42;;;;;;;7.37;4.27;;;9.40;99.90;;;;;;5119277;28;20578;-81
2022/10/23 04:06:08;;;;;;;7.77;3.60;;;9.50;99.90;;;;;;5119364;28;20193;-81
2022/10/23 04:08:37;;;;;;;9.13;4.40;;;9.60;99.90;;;;;;5117356;28;20213;-81
2022/10/23 04:11:03;;;;;;;6.23;3.70;;;9.60;99.90;;;;;;5118228;28;20577;-81
2022/10/23 04:13:30;;;;;;;6.70;4.70;;;9.70;99.90;;;;;;5119436;28;20209;-80
2022/10/23 04:15:57;;;;;;;6.77;4.20;;;9.70;99.90;;;;;;5118470;28;20196;-81
2022/10/23 04:18:24;;;;;;;7.93;3.80;;;9.70;99.90;;;;;;5119325;28;20208;-81
2022/10/23 04:20:51;;;;;;;5.00;3.53;;;9.70;99.90;;;;;;5118870;28;20614;-81
2022/10/23 04:23:19;;;;;;;5.57;3.10;;;9.70;99.90;;;;;;5118230;28;20201;-81
2022/10/23 04:25:47;;;;;;;6.90;3.40;;;9.50;99.90;;;;;;5118012;28;20283;-81
2022/10/23 04:28:14;;;;;;;5.93;3.70;;;9.50;99.90;;;;;;5118999;28;20714;-80
2022/10/23 04:30:41;;;;;;;6.43;3.90;;;9.60;99.90;;;;;;5117933;28;20302;-81
2022/10/23 04:33:07;;;;;;;7.73;4.10;;;9.60;99.90;;;;;;5118435;28;20657;-81
2022/10/23 04:35:34;;;;;;;13.80;4.93;;;9.60;99.90;;;;;;5118253;28;20599;-81
2022/10/23 04:38:01;;;;;;;7.33;3.40;;;9.60;99.90;;;;;;5118645;28;20205;-81
2022/10/23 04:40:28;;;;;;;7.10;4.07;;;9.50;99.90;;;;;;5117289;28;20217;-81
2022/10/23 04:42:56;;;;;;;6.20;3.97;;;9.50;99.90;;;;;;5118516;28;20197;-81
2022/10/23 04:45:22;;;;;;;5.27;3.70;;;9.30;99.90;;;;;;5117856;28;20187;-81
2022/10/23 04:47:49;;;;;;;3.97;3.17;;;9.30;99.90;;;;;;5118578;28;20201;-81
2022/10/23 04:50:16;;;;;;;5.10;3.97;;;9.40;99.90;;;;;;5118845;28;20308;-81
2022/10/23 04:52:43;;;;;;;5.73;3.87;;;9.40;99.90;;;;;;5118775;28;20197;-81
2022/10/23 04:55:10;;;;;;;5.83;3.57;;;9.30;99.90;;;;;;5117010;28;20221;-81
2022/10/23 04:57:37;;;;;;;5.23;4.07;;;9.40;99.90;;;;;;5118537;28;20204;-81
2022/10/23 05:00:07;;;;;;;4.60;4.00;;;9.40;99.90;;;;;;5118114;28;20223;-81
2022/10/23 05:02:34;;;;;;;6.93;3.70;;;9.40;99.90;;;;;;5118842;28;20204;-81
2022/10/23 05:05:01;;;;;;;5.40;4.00;;;9.40;99.90;;;;;;5117182;28;20193;-81
2022/10/23 05:07:28;;;;;;;6.57;3.90;;;9.50;99.90;;;;;;5118772;28;20654;-81
2022/10/23 05:09:55;;;;;;;6.80;4.10;;;9.60;99.90;;;;;;5117532;28;20303;-81
2022/10/23 05:12:24;;;;;;;5.33;3.90;;;9.50;99.90;;;;;;5117404;28;20201;-81
2022/10/23 05:14:51;;;;;;;6.03;3.70;;;9.50;99.90;;;;;;5118220;28;20223;-81
2022/10/23 05:17:22;;;;;;;6.93;4.03;;;9.40;99.90;;;;;;5117012;28;20200;-81
2022/10/23 05:19:53;;;;;;;7.00;4.27;;;9.40;99.90;;;;;;5112012;28;20719;-81
2022/10/23 05:22:22;;;;;;;4.57;3.37;;;9.20;99.90;;;;;;5118330;28;20192;-80
2022/10/23 05:24:49;;;;;;;5.73;3.37;;;9.10;99.90;;;;;;5116902;28;20283;-81
2022/10/23 05:27:16;;;;;;;3.90;3.07;;;9.10;99.90;;;;;;5117534;28;20205;-81
2022/10/23 05:29:43;;;;;;;6.63;3.60;;;9.10;99.90;;;;;;5118286;28;20636;-81
2022/10/23 05:32:11;;;;;;;4.40;2.77;;;9.20;99.90;;;;;;5116946;28;20767;-81
2022/10/23 05:34:41;;;;;;;2.03;1.70;;;9.20;99.90;;;;;;5116594;28;20223;-81
2022/10/23 05:37:10;;;;;;;6.20;3.40;;;9.20;99.90;;;;;;5116575;28;20280;-82
2022/10/23 05:39:37;;;;;;;5.23;3.70;;;9.20;99.90;;;;;;5117194;28;20225;-81
2022/10/23 05:42:04;;;;;;;4.23;3.40;;;9.20;99.90;;;;;;5115967;28;20226;-81
2022/10/23 05:44:31;;;;;;;4.90;3.60;;;9.40;99.90;;;;;;5117746;28;20276;-81
2022/10/23 05:46:57;;;;;;;5.47;3.47;;;9.40;99.90;;;;;;5117355;28;20617;-81
2022/10/23 05:49:24;;;;;;;6.83;4.13;;;9.50;99.90;;;;;;5117346;28;20248;-81
2022/10/23 05:51:53;;;;;;;6.93;3.70;;;9.40;99.90;;;;;;5117941;28;20188;-81
2022/10/23 05:54:19;;;;;;;6.90;3.90;;;9.50;99.90;;;;;;5116726;28;20226;-81
2022/10/23 05:56:46;;;;;;;11.87;3.50;;;9.40;99.90;;;;;;5116159;28;20212;-81
2022/10/23 05:59:13;;;;;;;7.53;3.60;;;9.30;99.90;;;;;;5116410;28;20225;-82
2022/10/23 06:01:40;;;;;;;5.77;3.13;;;9.30;99.90;;;;;;5116656;28;20193;-81
2022/10/23 06:04:07;;;;;;;4.17;3.40;;;9.20;99.90;;;;;;5116460;28;20205;-80
2022/10/23 06:06:35;;;;;;;5.53;3.23;;;9.30;99.90;;;;;;5116872;28;20195;-81
2022/10/23 06:09:04;;;;;;;9.70;5.80;;;9.40;99.90;;;;;;5115916;28;20232;-81
2022/10/23 06:11:31;;;;;;;4.77;3.47;;;9.30;99.90;;;;;;5116711;28;20211;-81
2022/10/23 06:13:59;;;;;;;5.70;3.07;;;9.30;99.90;;;;;;5116683;28;20197;-83
2022/10/23 06:16:26;;;;;;;6.33;3.30;;;9.30;99.90;;;;;;5116552;28;20246;-81
2022/10/23 06:18:53;;;;;;;5.37;3.50;;;9.40;99.90;;;;;;5116526;28;20220;-81
2022/10/23 06:21:20;;;;;;;10.77;5.93;;;9.50;99.90;;;;;;5116077;28;20724;-81
2022/10/23 06:23:47;;;;;;;7.83;3.40;;;9.50;99.90;;;;;;5116230;28;20197;-81
2022/10/23 06:26:19;;;;;;;5.90;3.13;;;9.50;99.90;;;;;;5111079;28;20193;-81
2022/10/23 06:28:46;;;;;;;6.00;3.37;;;9.70;99.90;;;;;;5116785;27;20270;-81
2022/10/23 06:31:15;;;;;;;5.10;3.40;;;9.70;99.90;;;;;;5115536;28;20247;-80
2022/10/23 06:33:42;;;;;;;3.27;2.80;;;9.80;99.90;;;;;;5116591;28;20197;-81
2022/10/23 06:36:10;;;;;;;4.00;3.27;;;9.90;99.90;;;;;;5113589;28;20588;-81
2022/10/23 06:38:39;;;;;;;3.80;3.40;;;9.90;99.90;;;;;;5116986;27;20229;-80
2022/10/23 06:41:07;;;;;;;7.27;3.63;;;10.00;99.90;;;;;;5106955;28;20621;-82
2022/10/23 06:43:35;;;;;;;6.83;2.93;;;10.00;99.90;;;;;;5119241;27;20207;-81
2022/10/23 06:46:03;;;;;;;6.83;3.47;;;9.80;99.90;;;;;;5111448;28;20193;-82
2022/10/23 06:48:30;;;;;;;4.27;3.30;;;9.60;99.90;;;;;;5115054;28;20203;-81
2022/10/23 06:50:57;;;;;;;7.47;3.80;;;9.70;99.90;;;;;;5115013;28;20197;-81
2022/10/23 06:53:24;;;;;;;6.13;3.60;;;9.70;99.90;;;;;;5116275;28;20639;-81
2022/10/23 06:55:51;;;;;;;7.40;3.50;;;9.70;99.90;;;;;;5116156;28;20497;-81
2022/10/23 06:58:18;;;;;;;4.00;3.23;;;9.80;99.90;;;;;;5112667;28;20244;-81
2022/10/23 07:00:47;;;;;;;4.60;2.93;;;9.90;99.90;;;;;;5121467;27;20203;-81
2022/10/23 07:03:13;;;;;;;5.73;3.40;;;9.80;99.90;;;;;;5125498;27;20199;-81
2022/10/23 07:05:43;;;;;;;5.10;3.47;;;9.80;99.90;;;;;;5114670;28;20203;-81
2022/10/23 07:08:10;;;;;;;5.77;3.20;;;10.00;99.90;;;;;;5116232;28;20274;-81
2022/10/23 07:10:37;;;;;;;5.07;4.20;;;10.10;99.90;;;;;;5116315;28;20228;-81
2022/10/23 07:13:04;;;;;;;5.07;3.47;;;10.20;99.90;;;;;;5115914;28;20200;-81
2022/10/23 07:15:31;;;;;;;4.47;3.40;;;10.30;99.90;;;;;;5116331;28;20680;-81
2022/10/23 07:17:59;;;;;;;7.23;3.13;;;10.30;99.90;;;;;;5115732;28;20204;-81
2022/10/23 07:20:26;;;;;;;6.90;3.80;;;10.40;99.90;;;;;;5133387;27;20224;-82
2022/10/23 07:22:54;;;;;;;5.37;3.50;;;10.50;99.90;;;;;;5116065;28;20197;-81
2022/10/23 07:25:22;;;;;;;6.27;3.10;;;10.70;99.90;;;;;;5113069;28;20193;-81
2022/10/23 07:27:49;;;;;;;5.80;3.30;;;10.90;99.90;;;;;;5125069;28;20561;-80
2022/10/23 07:30:16;;;;;;;4.63;3.17;;;11.00;99.90;;;;;;5112839;28;20244;-81
2022/10/23 07:32:44;;;;;;;5.53;3.80;;;11.20;99.90;;;;;;5118891;28;20211;-81
2022/10/23 07:35:14;;;;;;;11.50;6.97;;;11.40;99.90;;;;;;5114745;28;20216;-81
2022/10/23 07:37:41;;;;;;;8.10;4.10;;;11.60;99.90;;;;;;5122720;28;20649;-81
2022/10/23 07:40:09;;;;;;;5.07;3.87;;;11.80;99.90;;;;;;5117270;28;20303;-81
2022/10/23 07:42:36;;;;;;;6.47;3.97;;;11.90;99.90;;;;;;5113939;28;20667;-81
2022/10/23 07:45:05;;;;;;;10.10;4.03;;;11.90;99.90;;;;;;5120655;28;20207;-81
2022/10/23 07:47:32;;;;;;;6.23;3.93;;;12.00;99.90;;;;;;5102067;28;20246;-81
2022/10/23 07:49:59;;;;;;;6.70;4.27;;;12.00;99.90;;;;;;5112261;28;20228;-81
2022/10/23 07:52:27;;;;;;;7.43;4.77;;;12.00;99.90;;;;;;5113078;28;20197;-81
2022/10/23 07:54:54;;;;;;;6.13;3.80;;;12.10;99.90;;;;;;5119222;28;20209;-81
2022/10/23 07:57:21;;;;;;;8.13;3.63;;;12.10;99.90;;;;;;5116066;28;20204;-81
2022/10/23 07:59:47;;;;;;;6.90;3.90;;;12.20;99.90;;;;;;5108454;28;20212;-83
2022/10/23 08:02:15;;;;;;;6.90;4.53;;;12.10;99.90;;;;;;5111924;28;20204;-81
2022/10/23 08:04:42;;;;;;;5.83;3.87;;;12.10;99.90;;;;;;5113747;28;20208;-80
2022/10/23 08:07:09;;;;;;;5.77;3.73;;;12.20;99.90;;;;;;5111728;28;20209;-80
2022/10/23 08:09:37;;;;;;;10.13;4.60;;;12.20;99.90;;;;;;5112606;28;20693;-80
2022/10/23 08:12:05;;;;;;;7.47;4.03;;;12.30;99.90;;;;;;5115010;28;20593;-80
2022/10/23 08:14:31;;;;;;;7.00;4.17;;;12.40;99.90;;;;;;5112558;28;20197;-81
2022/10/23 08:16:58;;;;;;;19.50;4.73;;;12.60;99.90;;;;;;5121517;27;20604;-81
2022/10/23 08:19:25;;;;;;;7.40;4.70;;;12.60;99.90;;;;;;5126397;27;20212;-81
2022/10/23 08:21:53;;;;;;;8.87;4.40;;;12.70;99.90;;;;;;5118198;28;20224;-81
2022/10/23 08:24:20;;;;;;;7.43;3.67;;;12.80;99.90;;;;;;5121832;27;20204;-80
2022/10/23 08:26:50;;;;;;;7.60;4.17;;;13.00;99.90;;;;;;5113491;28;20651;-80
2022/10/23 08:29:17;;;;;;;4.37;3.50;;;13.10;99.90;;;;;;5126608;27;20239;-81
2022/10/23 08:31:44;;;;;;;8.90;3.90;;;13.10;99.90;;;;;;5118892;27;20669;-81
2022/10/23 08:34:11;;;;;;;7.60;3.80;;;13.20;99.90;;;;;;5125402;27;20559;-80
2022/10/23 08:36:39;;;;;;;6.10;3.67;;;13.40;99.90;;;;;;5138561;27;20224;-80
2022/10/23 08:39:06;;;;;;;9.83;4.17;;;13.50;99.90;;;;;;5135722;27;20265;-80
2022/10/23 08:41:36;;;;;;;7.93;3.90;;;13.70;99.90;;;;;;5138344;27;20193;-80
2022/10/23 08:44:09;;;;;;;7.03;3.50;;;13.80;99.90;;;;;;5138762;27;20191;-80
2022/10/23 08:46:40;;;;;;;8.37;4.17;;;13.80;99.90;;;;;;5119652;27;20198;-80
2022/10/23 08:49:20;;;;;;;5.47;3.20;;;13.90;99.90;;;;;;5118524;28;20221;-79
2022/10/23 08:51:50;;;;;;;7.60;3.90;;;14.00;99.90;;;;;;5127511;27;20196;-80
2022/10/23 08:54:21;;;;;;;5.27;3.30;;;14.20;99.90;;;;;;5116911;28;20205;-80
2022/10/23 08:56:52;;;;;;;4.50;3.40;;;14.40;99.90;;;;;;5119534;27;20688;-81
2022/10/23 08:59:27;;;;;;;5.93;3.10;;;14.60;99.90;;;;;;5123082;27;20220;-81
2022/10/23 09:02:00;;;;;;;6.90;3.80;;;14.80;99.90;;;;;;5117335;28;20273;-82
2022/10/23 09:04:27;;;;;;;6.67;2.40;;;14.90;99.90;;;;;;5114621;27;20203;-81
2022/10/23 09:07:04;;;;;;;6.17;2.40;;;15.00;99.90;;;;;;5124353;27;20193;-81
2022/10/23 09:09:47;;;;;;;2.83;2.27;;;15.10;99.90;;;;;;5117450;28;20219;-80
2022/10/23 09:12:16;;;;;;;6.10;1.90;;;15.20;99.90;;;;;;5118108;28;20201;-81
2022/10/23 09:15:12;;;;;;;3.67;2.30;;;15.40;99.90;;;;;;5119026;28;20238;-81
2022/10/23 09:17:40;;;;;;;5.17;2.20;;;15.60;99.90;;;;;;5118938;28;20578;-81
2022/10/23 09:20:16;;;;;;;3.93;1.83;;;15.80;99.90;;;;;;5118321;28;20216;-80
2022/10/23 09:22:43;;;;;;;3.85;2.00;;;15.90;99.90;;;;;;5118318;28;20196;-81
2022/10/23 09:25:11;;;;;;;4.30;1.67;;;15.90;99.90;;;;;;5117758;28;20577;-81
2022/10/23 09:27:38;;;;;;;12.90;8.93;;;16.00;99.90;;;;;;5116704;28;20204;-85
2022/10/23 09:30:08;;;;;;;3.83;2.00;;;16.00;99.90;;;;;;5118042;28;20243;-81
2022/10/23 09:32:36;;;;;;;5.28;2.35;;;16.10;99.90;;;;;;5118461;27;20211;-80
2022/10/23 09:35:05;;;;;;;4.60;1.85;;;16.10;99.90;;;;;;5111998;28;20212;-81
2022/10/23 09:37:34;;;;;;;5.00;1.58;;;16.10;99.90;;;;;;5117757;27;20208;-80
2022/10/23 09:40:15;;;;;;;6.68;2.17;;;16.20;99.90;;;;;;5121217;27;20258;-80
2022/10/23 09:42:52;;;;;;;10.25;1.92;;;16.30;99.90;;;;;;5118073;28;20242;-80
2022/10/23 09:45:27;;;;;;;5.38;1.83;;;16.20;99.90;;;;;;5117258;28;20201;-80
2022/10/23 09:48:05;;;;;;;3.08;1.73;;;16.30;99.90;;;;;;5113114;28;20203;-80
2022/10/23 09:50:32;;;;;;;1.92;1.60;;;16.30;99.90;;;;;;5117161;28;20238;-80
2022/10/23 09:52:59;;;;;;;3.45;1.58;;;16.30;99.90;;;;;;5122415;27;20656;-80
2022/10/23 09:55:27;;;;;;;3.50;1.65;;;16.40;99.90;;;;;;5121787;27;20672;-80
2022/10/23 09:57:55;;;;;;;4.65;1.67;;;16.40;99.90;;;;;;5118575;27;20204;-79
2022/10/23 10:00:24;;;;;;;3.10;1.40;;;16.50;99.90;;;;;;5117439;28;20221;-80
2022/10/23 10:02:57;;;;;;;3.92;2.00;;;16.50;99.90;;;;;;5125444;27;20201;-80
2022/10/23 10:05:25;;;;;;;4.55;1.70;;;16.60;99.90;;;;;;5131407;27;20193;-80
2022/10/23 10:07:59;;;;;;;2.33;1.73;;;16.70;99.90;;;;;;5125234;27;20774;-81
2022/10/23 10:10:34;;;;;;;5.85;2.03;;;16.70;99.90;;;;;;5116343;27;20226;-80
2022/10/23 10:13:04;;;;;;;3.05;1.50;;;16.80;99.90;;;;;;5113082;27;20204;-80
2022/10/23 10:15:37;;;;;;;3.63;1.80;;;16.80;99.90;;;;;;5110914;28;20213;-80
2022/10/23 10:18:14;;;;;;;5.53;1.40;;;16.80;99.90;;;;;;5110471;27;20586;-81
2022/10/23 10:21:05;;;;;;;3.63;1.98;;;16.90;99.90;;;;;;5106705;27;20201;-81
2022/10/23 10:23:41;;;;;;;3.67;1.83;;;16.80;99.90;;;;;;5096652;28;20220;-81
2022/10/23 10:26:17;;;;;;;6.60;2.33;;;16.70;99.90;;;;;;5114767;27;20196;-81
2022/10/23 10:29:05;;;;;;;4.03;1.90;;;16.80;99.90;;;;;;5109222;27;20696;-81
2022/10/23 10:31:48;;;;;;;2.78;1.50;;;16.80;99.90;;;;;;5117666;27;20200;-81
2022/10/23 10:34:21;;;;;;;4.50;2.53;;;16.80;99.90;;;;;;5107970;27;20576;-80
2022/10/23 10:36:52;;;;;;;1.85;1.60;;;17.00;99.90;;;;;;5107542;28;20219;-80
2022/10/23 10:39:31;;;;;;;3.70;1.80;;;17.10;99.90;;;;;;5117167;27;20236;-81
2022/10/23 10:42:22;;;;;;;5.38;1.90;;;17.30;99.90;;;;;;5124692;27;20295;-81
2022/10/23 10:45:14;;;;;;;4.95;1.85;;;17.30;99.90;;;;;;5119203;27;20192;-81
2022/10/23 10:47:50;;;;;;;5.43;1.70;;;17.40;99.90;;;;;;5115937;28;20300;-80
2022/10/23 10:50:20;;;;;;;1.88;1.52;;;17.40;99.90;;;;;;5118247;27;20231;-80
2022/10/23 10:52:55;;;;;;;4.00;1.48;;;17.50;99.90;;;;;;5116829;28;20196;-80
2022/10/23 10:55:28;;;;;;;4.57;1.70;;;17.40;99.90;;;;;;5124796;27;20191;-80
2022/10/23 10:57:59;;;;;;;3.58;1.42;;;17.50;99.90;;;;;;5130875;27;20193;-80
2022/10/23 11:00:27;;;;;;;3.75;1.77;;;17.50;99.90;;;;;;5129081;27;20216;-80
2022/10/23 11:03:00;;;;;;;3.17;1.67;;;17.60;99.90;;;;;;5136042;27;20207;-81
2022/10/23 11:05:32;;;;;;;1.90;1.50;;;17.60;99.90;;;;;;5132065;27;20203;-81
2022/10/23 11:08:03;;;;;;;2.40;1.50;;;17.70;99.90;;;;;;5125150;27;20721;-80
2022/10/23 11:10:32;;;;;;;3.28;1.77;;;17.70;99.90;;;;;;5116314;27;20223;-81
2022/10/23 11:12:59;;;;;;;3.30;1.52;;;17.80;99.90;;;;;;5110572;28;20207;-81
2022/10/23 11:15:31;;;;;;;5.95;1.75;;;18.00;99.90;;;;;;5115805;28;20219;-81
2022/10/23 11:18:03;;;;;;;6.78;1.98;;;18.10;99.90;;;;;;5115317;28;20276;-81
2022/10/23 11:20:54;;;;;;;3.35;1.90;;;18.40;99.90;;;;;;5116232;28;20247;-80
2022/10/23 11:23:48;;;;;;;3.30;1.67;;;18.50;99.90;;;;;;5123044;27;20195;-80
2022/10/23 11:26:29;;;;;;;2.70;1.40;;;18.60;99.90;;;;;;5119892;28;20193;-81
2022/10/23 11:29:13;;;;;;;2.85;1.58;;;18.60;99.90;;;;;;5114677;28;20217;-81
2022/10/23 11:31:51;;;;;;;4.28;1.85;;;18.90;99.90;;;;;;5120914;28;20207;-81
2022/10/23 11:34:48;;;;;;;4.40;1.95;;;19.10;99.90;;;;;;5135869;28;20565;-81
2022/10/23 11:37:17;;;;;;;2.10;1.60;;;19.20;99.90;;;;;;5133278;27;20227;-81
2022/10/23 11:39:59;;;;;;;4.25;1.90;;;19.40;1.00;;;;;;5135818;28;20223;-80
2022/10/23 11:42:45;;;;;;;3.20;1.88;;;19.50;1.00;;;;;;5133829;28;20199;-84
2022/10/23 11:45:31;;;;;;;5.13;2.35;;;19.80;43.60;;;;;;5120208;28;20196;-81
2022/10/23 11:48:01;;;;;;;2.63;1.92;;;19.90;1.00;;;;;;5115459;28;20649;-80
2022/10/23 11:50:32;;;;;;;6.47;2.78;;;19.70;1.00;;;;;;5114553;28;20224;-81
2022/10/23 11:53:03;;;;;;;2.92;1.73;;;19.80;1.00;;;;;;5108930;27;20647;-80
2022/10/23 11:55:31;;;;;;;1.52;1.42;;;19.40;1.00;;;;;;5125454;27;20205;-80
2022/10/23 11:58:25;;;;;;;2.85;1.67;;;19.20;99.90;;;;;;5118862;28;20201;-80
2022/10/23 12:01:05;;;;;;;4.03;1.92;;;19.30;63.20;;;;;;5118721;28;20224;-81
2022/10/23 12:03:41;;;;;;;5.18;1.70;;;19.40;99.90;;;;;;5129902;27;20656;-80
2022/10/23 12:06:21;;;;;;;5.45;1.73;;;19.50;1.00;;;;;;5116727;28;20203;-80
2022/10/23 12:08:51;;;;;;;3.00;1.58;;;19.70;1.00;;;;;;5120205;27;20696;-81
2022/10/23 12:11:26;;;;;;;2.45;1.80;;;19.80;1.00;;;;;;5119172;27;20215;-80
2022/10/23 12:13:53;;;;;;;3.60;1.73;;;19.80;1.00;;;;;;5114616;28;20199;-81
2022/10/23 12:16:20;;;;;;;4.63;2.05;;;19.90;79.70;;;;;;5119264;28;20231;-80
2022/10/23 12:18:49;;;;;;;4.70;1.77;;;19.90;38.80;;;;;;5119115;28;20224;-80
2022/10/23 12:21:21;;;;;;;3.83;1.80;;;19.60;1.00;;;;;;5119459;28;20620;-80
2022/10/23 12:24:39;;;;;;;3.50;2.15;;;19.70;1.00;;;;;;5119737;28;20189;-80
2022/10/23 12:27:18;;;;;;;3.17;2.53;;;19.70;1.00;;;;;;5066340;28;20199;-80
2022/10/23 12:30:00;;;;;;;3.97;2.25;;;19.50;1.00;;;;;;5055794;28;20252;-79
2022/10/23 12:32:43;;;;;;;5.53;1.77;;;19.50;99.90;;;;;;5089732;28;20578;-79
2022/10/23 12:35:26;;;;;;;2.63;1.65;;;19.50;1.00;;;;;;5111802;27;20258;-81
2022/10/23 12:38:07;;;;;;;2.75;1.45;;;19.20;1.00;;;;;;5118882;27;20216;-80
2022/10/23 12:40:34;;;;;;;3.45;1.30;;;19.50;1.00;;;;;;5120967;27;20231;-81
2022/10/23 12:43:01;;;;;;;5.55;1.90;;;19.40;99.90;;;;;;5112739;27;20205;-80
2022/10/23 12:45:32;;;;;;;4.22;1.50;;;19.40;99.90;;;;;;5113145;28;20204;-80
2022/10/23 12:47:59;;;;;;;2.13;1.48;;;19.40;99.90;;;;;;5115044;28;20196;-81
2022/10/23 12:50:27;;;;;;;2.60;1.83;;;19.40;1.00;;;;;;5123012;27;20311;-81
2022/10/23 12:52:59;;;;;;;6.68;1.52;;;19.20;1.00;;;;;;5117488;27;20193;-80
2022/10/23 12:55:30;;;;;;;3.47;2.03;;;19.30;1.00;;;;;;5115870;28;20655;-80
2022/10/23 12:57:57;;;;;;;3.65;1.40;;;19.20;1.00;;;;;;5117006;27;20718;-81
2022/10/23 13:00:25;;;;;;;3.05;1.40;;;19.10;1.00;;;;;;5119581;27;20221;-81
2022/10/23 13:02:59;;;;;;;5.85;1.98;;;19.00;1.00;;;;;;5122542;27;20197;-83
2022/10/23 13:05:27;;;;;;;5.40;1.80;;;19.00;99.90;;;;;;5116868;27;20202;-82
2022/10/23 13:07:56;;;;;;;1.70;1.50;;;18.90;99.90;;;;;;5116854;27;20568;-82